sensor_id;sensor_type;location;lat;lon;timestamp;pressure;altitude;pressure_sealevel;temperature;humidity
5296;BME280;2670;42.720;23.336;2024-03-23T00:55:13;-18091.72;;;-145.34;64.35
5296;BME280;2670;42.720;23.336;2024-03-23T00:57:39;-18091.72;;;-145.34;64.64
5296;BME280;2670;42.720;23.336;2024-03-23T01:00:06;-18091.72;;;-145.34;64.71
5296;BME280;2670;42.720;23.336;2024-03-23T01:02:35;-18091.72;;;-145.34;64.44
5296;BME280;2670;42.720;23.336;2024-03-23T01:05:02;-18091.72;;;-145.34;64.63
5296;BME280;2670;42.720;23.336;2024-03-23T01:07:28;-18091.72;;;-145.34;64.69
5296;BME280;2670;42.720;23.336;2024-03-23T01:09:54;-18091.72;;;-145.34;64.84
5296;BME280;2670;42.720;23.336;2024-03-23T01:12:21;-18091.72;;;-145.34;64.99
5296;BME280;2670;42.720;23.336;2024-03-23T01:14:48;-18091.72;;;-145.34;64.28
5296;BME280;2670;42.720;23.336;2024-03-23T01:17:14;-18091.72;;;-145.34;63.51
5296;BME280;2670;42.720;23.336;2024-03-23T01:19:40;-18091.72;;;-145.34;63.78
5296;BME280;2670;42.720;23.336;2024-03-23T01:22:06;-18091.72;;;-145.34;64.14
5296;BME280;2670;42.720;23.336;2024-03-23T01:24:35;-18091.72;;;-145.34;64.27
5296;BME280;2670;42.720;23.336;2024-03-23T01:27:01;-18091.72;;;-145.34;63.43
5296;BME280;2670;42.720;23.336;2024-03-23T01:29:30;-18091.72;;;-145.34;63.75
5296;BME280;2670;42.720;23.336;2024-03-23T01:31:55;-18091.72;;;-145.34;63.60
5296;BME280;2670;42.720;23.336;2024-03-23T01:34:22;-18091.72;;;-145.34;63.37
5296;BME280;2670;42.720;23.336;2024-03-23T01:36:50;-18091.72;;;-145.34;63.71
5296;BME280;2670;42.720;23.336;2024-03-23T01:39:16;-18091.72;;;-145.34;64.11
5296;BME280;2670;42.720;23.336;2024-03-23T01:41:42;-18091.72;;;-145.34;64.15
5296;BME280;2670;42.720;23.336;2024-03-23T01:44:09;-18091.72;;;-145.34;64.93
5296;BME280;2670;42.720;23.336;2024-03-23T01:46:38;-18091.72;;;-145.34;65.13
5296;BME280;2670;42.720;23.336;2024-03-23T01:49:07;-18091.72;;;-145.34;64.48
5296;BME280;2670;42.720;23.336;2024-03-23T01:51:33;-18091.72;;;-145.34;65.04
5296;BME280;2670;42.720;23.336;2024-03-23T01:54:01;-18091.72;;;-145.34;65.35
5296;BME280;2670;42.720;23.336;2024-03-23T01:56:28;-18091.72;;;-145.34;64.90
5296;BME280;2670;42.720;23.336;2024-03-23T01:58:56;-18091.72;;;-145.34;65.48
5296;BME280;2670;42.720;23.336;2024-03-23T02:01:22;-18091.72;;;-145.34;65.28
5296;BME280;2670;42.720;23.336;2024-03-23T02:03:50;-18091.72;;;-145.34;65.80
5296;BME280;2670;42.720;23.336;2024-03-23T02:06:16;-18091.72;;;-145.34;65.88
5296;BME280;2670;42.720;23.336;2024-03-23T02:08:44;-18091.72;;;-145.34;65.42
5296;BME280;2670;42.720;23.336;2024-03-23T02:11:10;-18091.72;;;-145.34;65.75
5296;BME280;2670;42.720;23.336;2024-03-23T02:13:37;-18091.72;;;-145.34;65.15
5296;BME280;2670;42.720;23.336;2024-03-23T02:16:03;-18091.72;;;-145.34;65.21
5296;BME280;2670;42.720;23.336;2024-03-23T02:18:31;-18091.72;;;-145.34;66.61
5296;BME280;2670;42.720;23.336;2024-03-23T02:20:58;-18091.72;;;-145.34;66.83
5296;BME280;2670;42.720;23.336;2024-03-23T02:23:26;-18091.72;;;-145.34;67.01
5296;BME280;2670;42.720;23.336;2024-03-23T02:25:52;-18091.72;;;-145.34;66.82
5296;BME280;2670;42.720;23.336;2024-03-23T02:28:19;-18091.72;;;-145.34;66.87
5296;BME280;2670;42.720;23.336;2024-03-23T02:30:45;-18091.72;;;-145.34;67.15
5296;BME280;2670;42.720;23.336;2024-03-23T02:33:11;-18091.72;;;-145.34;68.00
5296;BME280;2670;42.720;23.336;2024-03-23T02:35:37;-18091.72;;;-145.34;68.58
5296;BME280;2670;42.720;23.336;2024-03-23T02:38:04;-18091.72;;;-145.34;67.90
5296;BME280;2670;42.720;23.336;2024-03-23T02:40:31;-18091.72;;;-145.34;68.55
5296;BME280;2670;42.720;23.336;2024-03-23T02:42:58;-18091.72;;;-145.34;67.83
5296;BME280;2670;42.720;23.336;2024-03-23T02:45:23;-18091.72;;;-145.34;68.28
5296;BME280;2670;42.720;23.336;2024-03-23T02:47:50;-18091.72;;;-145.34;69.22
5296;BME280;2670;42.720;23.336;2024-03-23T02:50:17;-18091.72;;;-145.34;69.09
5296;BME280;2670;42.720;23.336;2024-03-23T02:52:44;-18091.72;;;-145.34;69.40
5296;BME280;2670;42.720;23.336;2024-03-23T02:55:10;-18091.72;;;-145.34;69.45
5296;BME280;2670;42.720;23.336;2024-03-23T02:57:38;-18091.72;;;-145.34;69.01
5296;BME280;2670;42.720;23.336;2024-03-23T03:00:05;-18091.72;;;-145.34;69.09
5296;BME280;2670;42.720;23.336;2024-03-23T03:02:32;-18091.72;;;-145.34;69.51
5296;BME280;2670;42.720;23.336;2024-03-23T03:04:58;-18091.72;;;-145.34;69.40
5296;BME280;2670;42.720;23.336;2024-03-23T03:07:25;-18091.72;;;-145.34;70.03
5296;BME280;2670;42.720;23.336;2024-03-23T03:09:51;-18091.72;;;-145.34;68.80
5296;BME280;2670;42.720;23.336;2024-03-23T03:12:17;-18091.72;;;-145.34;68.64
5296;BME280;2670;42.720;23.336;2024-03-23T03:14:44;-18091.72;;;-145.34;68.30
5296;BME280;2670;42.720;23.336;2024-03-23T03:17:11;-18091.72;;;-145.34;68.96
5296;BME280;2670;42.720;23.336;2024-03-23T03:19:37;-18091.72;;;-145.34;68.57
5296;BME280;2670;42.720;23.336;2024-03-23T03:22:04;-18091.72;;;-145.34;68.58
5296;BME280;2670;42.720;23.336;2024-03-23T03:24:29;-18091.72;;;-145.34;70.03
5296;BME280;2670;42.720;23.336;2024-03-23T03:26:56;-18091.72;;;-145.34;68.69
5296;BME280;2670;42.720;23.336;2024-03-23T03:29:23;-18091.72;;;-145.34;68.90
5296;BME280;2670;42.720;23.336;2024-03-23T03:31:53;-18091.72;;;-145.34;68.94
5296;BME280;2670;42.720;23.336;2024-03-23T03:34:19;-18091.72;;;-145.34;69.27
5296;BME280;2670;42.720;23.336;2024-03-23T03:36:45;-18091.72;;;-145.34;69.36
5296;BME280;2670;42.720;23.336;2024-03-23T03:39:11;-18091.72;;;-145.34;69.45
5296;BME280;2670;42.720;23.336;2024-03-23T03:41:38;-18091.72;;;-145.34;69.60
5296;BME280;2670;42.720;23.336;2024-03-23T03:44:04;-18091.72;;;-145.34;68.73
5296;BME280;2670;42.720;23.336;2024-03-23T03:46:30;-18091.72;;;-145.34;69.44
5296;BME280;2670;42.720;23.336;2024-03-23T03:48:57;-18091.72;;;-145.34;68.89
5296;BME280;2670;42.720;23.336;2024-03-23T03:51:24;-18091.72;;;-145.34;68.92
5296;BME280;2670;42.720;23.336;2024-03-23T03:53:50;-18091.72;;;-145.34;69.85
5296;BME280;2670;42.720;23.336;2024-03-23T03:56:16;-18091.72;;;-145.34;69.98
5296;BME280;2670;42.720;23.336;2024-03-23T03:58:42;-18091.72;;;-145.34;69.18
5296;BME280;2670;42.720;23.336;2024-03-23T04:01:09;-18091.72;;;-145.34;69.42
5296;BME280;2670;42.720;23.336;2024-03-23T04:03:35;-18091.72;;;-145.34;68.88
5296;BME280;2670;42.720;23.336;2024-03-23T04:06:06;-18091.72;;;-145.34;69.56
5296;BME280;2670;42.720;23.336;2024-03-23T04:08:32;-18091.72;;;-145.34;69.52
5296;BME280;2670;42.720;23.336;2024-03-23T04:10:59;-18091.72;;;-145.34;69.38
5296;BME280;2670;42.720;23.336;2024-03-23T04:13:24;-18091.72;;;-145.34;69.68
5296;BME280;2670;42.720;23.336;2024-03-23T04:15:54;-18091.72;;;-145.34;69.57
5296;BME280;2670;42.720;23.336;2024-03-23T04:18:20;-18091.72;;;-145.34;69.29
5296;BME280;2670;42.720;23.336;2024-03-23T04:20:47;-18091.72;;;-145.34;69.37
5296;BME280;2670;42.720;23.336;2024-03-23T04:23:14;-18091.72;;;-145.34;69.36
5296;BME280;2670;42.720;23.336;2024-03-23T04:25:40;-18091.72;;;-145.34;69.09
5296;BME280;2670;42.720;23.336;2024-03-23T04:28:06;-18091.72;;;-145.34;69.19
5296;BME280;2670;42.720;23.336;2024-03-23T04:30:33;-18091.72;;;-145.34;69.51
5296;BME280;2670;42.720;23.336;2024-03-23T04:32:58;-18091.72;;;-145.34;69.38
5296;BME280;2670;42.720;23.336;2024-03-23T04:35:26;-18091.72;;;-145.34;70.01
5296;BME280;2670;42.720;23.336;2024-03-23T04:37:52;-18091.72;;;-145.34;70.23
5296;BME280;2670;42.720;23.336;2024-03-23T04:40:20;-18091.72;;;-145.34;69.92
5296;BME280;2670;42.720;23.336;2024-03-23T04:42:47;-18091.72;;;-145.34;70.87
5296;BME280;2670;42.720;23.336;2024-03-23T04:45:14;-18091.72;;;-145.34;71.22
5296;BME280;2670;42.720;23.336;2024-03-23T04:47:41;-18091.72;;;-145.34;70.79
5296;BME280;2670;42.720;23.336;2024-03-23T04:50:09;-18091.72;;;-145.34;71.28
5296;BME280;2670;42.720;23.336;2024-03-23T04:52:36;-18091.72;;;-145.34;69.89
5296;BME280;2670;42.720;23.336;2024-03-23T04:55:04;-18091.72;;;-145.34;70.62
5296;BME280;2670;42.720;23.336;2024-03-23T04:57:32;-18091.72;;;-145.34;71.19
5296;BME280;2670;42.720;23.336;2024-03-23T04:59:57;-18091.72;;;-145.34;71.48
5296;BME280;2670;42.720;23.336;2024-03-23T05:02:24;-18091.72;;;-145.34;70.38
5296;BME280;2670;42.720;23.336;2024-03-23T05:04:51;-18091.72;;;-145.34;70.53
5296;BME280;2670;42.720;23.336;2024-03-23T05:07:17;-18091.72;;;-145.34;69.74
5296;BME280;2670;42.720;23.336;2024-03-23T05:09:43;-18091.72;;;-145.34;69.07
5296;BME280;2670;42.720;23.336;2024-03-23T05:12:10;-18091.72;;;-145.34;68.83
5296;BME280;2670;42.720;23.336;2024-03-23T05:14:38;-18091.72;;;-145.34;67.49
5296;BME280;2670;42.720;23.336;2024-03-23T05:17:03;-18091.72;;;-145.34;68.91
5296;BME280;2670;42.720;23.336;2024-03-23T05:19:30;-18091.72;;;-145.34;70.18
5296;BME280;2670;42.720;23.336;2024-03-23T05:21:56;-18091.72;;;-145.34;70.27
5296;BME280;2670;42.720;23.336;2024-03-23T05:24:22;-18091.72;;;-145.34;71.24
5296;BME280;2670;42.720;23.336;2024-03-23T05:26:48;-18091.72;;;-145.34;71.12
5296;BME280;2670;42.720;23.336;2024-03-23T05:29:14;-18091.72;;;-145.34;71.83
5296;BME280;2670;42.720;23.336;2024-03-23T05:31:43;-18091.72;;;-145.34;71.59
5296;BME280;2670;42.720;23.336;2024-03-23T05:34:10;-18091.72;;;-145.34;71.08
5296;BME280;2670;42.720;23.336;2024-03-23T05:36:36;-18091.72;;;-145.34;71.65
5296;BME280;2670;42.720;23.336;2024-03-23T05:39:03;-18091.72;;;-145.34;69.74
5296;BME280;2670;42.720;23.336;2024-03-23T05:41:29;-18091.72;;;-145.34;70.91
5296;BME280;2670;42.720;23.336;2024-03-23T05:43:55;-18091.72;;;-145.34;71.42
5296;BME280;2670;42.720;23.336;2024-03-23T05:46:21;-18091.72;;;-145.34;71.54
5296;BME280;2670;42.720;23.336;2024-03-23T05:48:50;-18091.72;;;-145.34;71.51
5296;BME280;2670;42.720;23.336;2024-03-23T05:51:16;-18091.72;;;-145.34;70.94
5296;BME280;2670;42.720;23.336;2024-03-23T05:53:43;-18091.72;;;-145.34;71.04
5296;BME280;2670;42.720;23.336;2024-03-23T05:56:09;-18091.72;;;-145.34;71.50
5296;BME280;2670;42.720;23.336;2024-03-23T05:58:35;-18091.72;;;-145.34;70.81
5296;BME280;2670;42.720;23.336;2024-03-23T06:01:01;-18091.72;;;-145.34;69.62
5296;BME280;2670;42.720;23.336;2024-03-23T06:03:29;-18091.72;;;-145.34;70.02
5296;BME280;2670;42.720;23.336;2024-03-23T06:05:56;-18091.72;;;-145.34;69.88
5296;BME280;2670;42.720;23.336;2024-03-23T06:08:23;-18091.72;;;-145.34;70.66
5296;BME280;2670;42.720;23.336;2024-03-23T06:10:49;-18091.72;;;-145.34;69.69
5296;BME280;2670;42.720;23.336;2024-03-23T06:13:16;-18091.72;;;-145.34;69.36
5296;BME280;2670;42.720;23.336;2024-03-23T06:15:43;-18091.72;;;-145.34;68.84
5296;BME280;2670;42.720;23.336;2024-03-23T06:18:11;-18091.72;;;-145.34;69.36
5296;BME280;2670;42.720;23.336;2024-03-23T06:20:37;-18091.72;;;-145.34;69.35
5296;BME280;2670;42.720;23.336;2024-03-23T06:23:06;-18091.72;;;-145.34;69.37
5296;BME280;2670;42.720;23.336;2024-03-23T06:25:31;-18091.72;;;-145.34;68.49
5296;BME280;2670;42.720;23.336;2024-03-23T06:27:58;-18091.72;;;-145.34;68.75
5296;BME280;2670;42.720;23.336;2024-03-23T06:30:24;-18091.72;;;-145.34;69.04
5296;BME280;2670;42.720;23.336;2024-03-23T06:32:52;-18091.72;;;-145.34;68.38
5296;BME280;2670;42.720;23.336;2024-03-23T06:35:18;-18091.72;;;-145.34;68.74
5296;BME280;2670;42.720;23.336;2024-03-23T06:37:45;-18091.72;;;-145.34;68.64
5296;BME280;2670;42.720;23.336;2024-03-23T06:40:12;-18091.72;;;-145.34;67.95
5296;BME280;2670;42.720;23.336;2024-03-23T06:42:39;-18091.72;;;-145.34;67.88
5296;BME280;2670;42.720;23.336;2024-03-23T06:45:05;-18091.72;;;-145.34;68.89
5296;BME280;2670;42.720;23.336;2024-03-23T06:47:32;-18091.72;;;-145.34;68.46
5296;BME280;2670;42.720;23.336;2024-03-23T06:49:59;-18091.72;;;-145.34;68.29
5296;BME280;2670;42.720;23.336;2024-03-23T06:52:27;-18091.72;;;-145.34;68.27
5296;BME280;2670;42.720;23.336;2024-03-23T06:54:53;-18091.72;;;-145.34;68.06
5296;BME280;2670;42.720;23.336;2024-03-23T06:57:21;-18091.72;;;-145.34;67.89
5296;BME280;2670;42.720;23.336;2024-03-23T06:59:47;-18091.72;;;-145.34;67.50
5296;BME280;2670;42.720;23.336;2024-03-23T07:02:14;-18091.72;;;-145.34;67.15
5296;BME280;2670;42.720;23.336;2024-03-23T07:04:39;-18091.72;;;-145.34;67.96
5296;BME280;2670;42.720;23.336;2024-03-23T07:07:06;-18091.72;;;-145.34;68.33
5296;BME280;2670;42.720;23.336;2024-03-23T07:09:32;-18091.72;;;-145.34;67.47
5296;BME280;2670;42.720;23.336;2024-03-23T07:11:59;-18091.72;;;-145.34;65.53
5296;BME280;2670;42.720;23.336;2024-03-23T07:14:26;-18091.72;;;-145.34;65.09
5296;BME280;2670;42.720;23.336;2024-03-23T07:16:53;-18091.72;;;-145.34;65.60
5296;BME280;2670;42.720;23.336;2024-03-23T07:19:18;-18091.72;;;-145.34;68.79
5296;BME280;2670;42.720;23.336;2024-03-23T07:21:45;-18091.72;;;-145.34;65.87
5296;BME280;2670;42.720;23.336;2024-03-23T07:24:11;-18091.72;;;-145.34;64.42
5296;BME280;2670;42.720;23.336;2024-03-23T07:26:38;-18091.72;;;-145.34;66.40
5296;BME280;2670;42.720;23.336;2024-03-23T07:29:04;-18091.72;;;-145.34;64.45
5296;BME280;2670;42.720;23.336;2024-03-23T07:31:32;-18091.72;;;-145.34;63.20
5296;BME280;2670;42.720;23.336;2024-03-23T07:33:57;-18091.72;;;-145.34;61.56
5296;BME280;2670;42.720;23.336;2024-03-23T07:36:24;-18091.72;;;-145.34;61.20
5296;BME280;2670;42.720;23.336;2024-03-23T07:38:50;-18091.72;;;-145.34;60.47
5296;BME280;2670;42.720;23.336;2024-03-23T07:41:18;-18091.72;;;-145.34;60.69
5296;BME280;2670;42.720;23.336;2024-03-23T07:43:44;-18091.72;;;-145.34;59.88
5296;BME280;2670;42.720;23.336;2024-03-23T07:46:12;-18091.72;;;-145.34;60.10
5296;BME280;2670;42.720;23.336;2024-03-23T07:48:39;-18091.72;;;-145.34;62.27
5296;BME280;2670;42.720;23.336;2024-03-23T07:51:09;-18091.72;;;-145.34;60.50
5296;BME280;2670;42.720;23.336;2024-03-23T07:53:35;-18091.72;;;-145.34;59.39
5296;BME280;2670;42.720;23.336;2024-03-23T07:56:05;-18091.72;;;-145.34;59.58
5296;BME280;2670;42.720;23.336;2024-03-23T07:58:31;-18091.72;;;-145.34;59.72
5296;BME280;2670;42.720;23.336;2024-03-23T08:01:04;-18091.72;;;-145.34;59.06
5296;BME280;2670;42.720;23.336;2024-03-23T08:03:30;-18091.72;;;-145.34;60.58
5296;BME280;2670;42.720;23.336;2024-03-23T08:06:06;-18091.72;;;-145.34;58.82
5296;BME280;2670;42.720;23.336;2024-03-23T08:08:32;-18091.72;;;-145.34;57.69
5296;BME280;2670;42.720;23.336;2024-03-23T08:10:58;-18091.72;;;-145.34;56.01
5296;BME280;2670;42.720;23.336;2024-03-23T08:13:24;-18091.72;;;-145.34;55.93
5296;BME280;2670;42.720;23.336;2024-03-23T08:15:51;-18091.72;;;-145.34;56.11
5296;BME280;2670;42.720;23.336;2024-03-23T08:18:16;-18091.72;;;-145.34;55.74
5296;BME280;2670;42.720;23.336;2024-03-23T08:20:43;-18091.72;;;-145.34;59.75
5296;BME280;2670;42.720;23.336;2024-03-23T08:23:10;-18091.72;;;-145.34;56.99
5296;BME280;2670;42.720;23.336;2024-03-23T08:25:37;-18091.72;;;-145.34;55.03
5296;BME280;2670;42.720;23.336;2024-03-23T08:28:03;-18091.72;;;-145.34;54.16
5296;BME280;2670;42.720;23.336;2024-03-23T08:30:30;-18091.72;;;-145.34;53.79
5296;BME280;2670;42.720;23.336;2024-03-23T08:32:55;-18091.72;;;-145.34;53.35
5296;BME280;2670;42.720;23.336;2024-03-23T08:35:22;-18091.72;;;-145.34;53.51
5296;BME280;2670;42.720;23.336;2024-03-23T08:37:48;-18091.72;;;-145.34;53.84
5296;BME280;2670;42.720;23.336;2024-03-23T08:40:16;-18091.72;;;-145.34;53.52
5296;BME280;2670;42.720;23.336;2024-03-23T08:42:42;-18091.72;;;-145.34;53.76
5296;BME280;2670;42.720;23.336;2024-03-23T08:45:09;-18091.72;;;-145.34;54.75
5296;BME280;2670;42.720;23.336;2024-03-23T08:47:35;-18091.72;;;-145.34;53.84
5296;BME280;2670;42.720;23.336;2024-03-23T08:50:02;-18091.72;;;-145.34;54.57
5296;BME280;2670;42.720;23.336;2024-03-23T08:52:27;-18091.72;;;-145.34;53.48
5296;BME280;2670;42.720;23.336;2024-03-23T08:54:55;-18091.72;;;-145.34;55.45
5296;BME280;2670;42.720;23.336;2024-03-23T08:57:22;-18091.72;;;-145.34;53.12
5296;BME280;2670;42.720;23.336;2024-03-23T08:59:52;-18091.72;;;-145.34;52.61
5296;BME280;2670;42.720;23.336;2024-03-23T09:02:17;-18091.72;;;-145.34;49.93
5296;BME280;2670;42.720;23.336;2024-03-23T09:04:44;-18091.72;;;-145.34;50.41
5296;BME280;2670;42.720;23.336;2024-03-23T09:07:10;-18091.72;;;-145.34;50.30
5296;BME280;2670;42.720;23.336;2024-03-23T09:09:38;-18091.72;;;-145.34;49.61
5296;BME280;2670;42.720;23.336;2024-03-23T09:12:04;-18091.72;;;-145.34;48.98
5296;BME280;2670;42.720;23.336;2024-03-23T09:14:33;-18091.72;;;-145.34;47.62
5296;BME280;2670;42.720;23.336;2024-03-23T09:16:59;-18091.72;;;-145.34;47.51
5296;BME280;2670;42.720;23.336;2024-03-23T09:19:27;-18091.72;;;-145.34;46.41
5296;BME280;2670;42.720;23.336;2024-03-23T09:21:53;-18091.72;;;-145.34;47.88
5296;BME280;2670;42.720;23.336;2024-03-23T09:24:27;-18091.72;;;-145.34;46.94
5296;BME280;2670;42.720;23.336;2024-03-23T09:26:53;-18091.72;;;-145.34;46.32
5296;BME280;2670;42.720;23.336;2024-03-23T09:29:19;-18091.72;;;-145.34;45.73
5296;BME280;2670;42.720;23.336;2024-03-23T09:31:46;-18091.72;;;-145.34;45.27
5296;BME280;2670;42.720;23.336;2024-03-23T09:34:13;-18091.72;;;-145.34;45.29
5296;BME280;2670;42.720;23.336;2024-03-23T09:36:39;-18091.72;;;-145.34;45.48
5296;BME280;2670;42.720;23.336;2024-03-23T09:39:06;-18091.72;;;-145.34;45.25
5296;BME280;2670;42.720;23.336;2024-03-23T09:41:34;-18091.72;;;-145.34;44.18
5296;BME280;2670;42.720;23.336;2024-03-23T09:44:01;-18091.72;;;-145.34;44.31
5296;BME280;2670;42.720;23.336;2024-03-23T09:46:27;-18091.72;;;-145.34;43.78
5296;BME280;2670;42.720;23.336;2024-03-23T09:48:56;-18091.72;;;-145.34;44.15
5296;BME280;2670;42.720;23.336;2024-03-23T09:51:22;-18091.72;;;-145.34;43.06
5296;BME280;2670;42.720;23.336;2024-03-23T09:53:50;-18091.72;;;-145.34;43.48
5296;BME280;2670;42.720;23.336;2024-03-23T09:56:15;-18091.72;;;-145.34;43.55
5296;BME280;2670;42.720;23.336;2024-03-23T09:58:43;-18091.72;;;-145.34;42.60
5296;BME280;2670;42.720;23.336;2024-03-23T10:01:09;-18091.72;;;-145.34;44.79
5296;BME280;2670;42.720;23.336;2024-03-23T10:03:42;-18091.72;;;-145.34;43.38
5296;BME280;2670;42.720;23.336;2024-03-23T10:06:09;-18091.72;;;-145.34;43.64
5296;BME280;2670;42.720;23.336;2024-03-23T10:08:36;-18091.72;;;-145.34;43.90
5296;BME280;2670;42.720;23.336;2024-03-23T10:11:13;-18091.72;;;-145.34;42.95
5296;BME280;2670;42.720;23.336;2024-03-23T10:13:41;-18091.72;;;-145.34;41.90
5296;BME280;2670;42.720;23.336;2024-03-23T10:16:08;-18091.72;;;-145.34;41.44
5296;BME280;2670;42.720;23.336;2024-03-23T10:18:37;-18091.72;;;-145.34;40.31
5296;BME280;2670;42.720;23.336;2024-03-23T10:21:10;-18091.72;;;-145.34;40.44
5296;BME280;2670;42.720;23.336;2024-03-23T10:23:38;-18091.72;;;-145.34;41.37
5296;BME280;2670;42.720;23.336;2024-03-23T10:26:18;-18091.72;;;-145.34;40.66
5296;BME280;2670;42.720;23.336;2024-03-23T10:28:56;-18091.72;;;-145.34;40.24
5296;BME280;2670;42.720;23.336;2024-03-23T10:31:24;-18091.72;;;-145.34;39.00
5296;BME280;2670;42.720;23.336;2024-03-23T10:33:51;-18091.72;;;-145.34;38.87
5296;BME280;2670;42.720;23.336;2024-03-23T10:36:21;-18091.72;;;-145.34;38.90
5296;BME280;2670;42.720;23.336;2024-03-23T10:38:50;-18091.72;;;-145.34;38.36
5296;BME280;2670;42.720;23.336;2024-03-23T10:41:16;-18091.72;;;-145.34;37.33
5296;BME280;2670;42.720;23.336;2024-03-23T10:43:45;-18091.72;;;-145.34;37.55
5296;BME280;2670;42.720;23.336;2024-03-23T10:46:11;-18091.72;;;-145.34;36.72
5296;BME280;2670;42.720;23.336;2024-03-23T10:48:38;-18091.72;;;-145.34;37.44
5296;BME280;2670;42.720;23.336;2024-03-23T10:51:05;-18091.72;;;-145.34;36.17
5296;BME280;2670;42.720;23.336;2024-03-23T10:53:35;-18091.72;;;-145.34;36.47
5296;BME280;2670;42.720;23.336;2024-03-23T10:56:02;-18091.72;;;-145.34;35.75
5296;BME280;2670;42.720;23.336;2024-03-23T10:58:31;-18091.72;;;-145.34;36.05
5296;BME280;2670;42.720;23.336;2024-03-23T11:00:58;-18091.72;;;-145.34;35.08
5296;BME280;2670;42.720;23.336;2024-03-23T11:03:33;-18091.72;;;-145.34;35.13
5296;BME280;2670;42.720;23.336;2024-03-23T11:05:59;-18091.72;;;-145.34;34.32
5296;BME280;2670;42.720;23.336;2024-03-23T11:08:34;-18091.72;;;-145.34;34.32
5296;BME280;2670;42.720;23.336;2024-03-23T11:11:19;-18091.72;;;-145.34;33.74
5296;BME280;2670;42.720;23.336;2024-03-23T11:13:48;-18091.72;;;-145.34;33.56
5296;BME280;2670;42.720;23.336;2024-03-23T11:16:15;-18091.72;;;-145.34;33.68
5296;BME280;2670;42.720;23.336;2024-03-23T11:18:43;-18091.72;;;-145.34;33.70
5296;BME280;2670;42.720;23.336;2024-03-23T11:21:09;-18091.72;;;-145.34;34.20
5296;BME280;2670;42.720;23.336;2024-03-23T11:23:37;-18091.72;;;-145.34;33.63
5296;BME280;2670;42.720;23.336;2024-03-23T11:26:07;-18091.72;;;-145.34;33.49
5296;BME280;2670;42.720;23.336;2024-03-23T11:28:34;-18091.72;;;-145.34;33.16
5296;BME280;2670;42.720;23.336;2024-03-23T11:30:59;-18091.72;;;-145.34;33.54
5296;BME280;2670;42.720;23.336;2024-03-23T11:33:26;-18091.72;;;-145.34;33.29
5296;BME280;2670;42.720;23.336;2024-03-23T11:35:52;-18091.72;;;-145.34;32.74
5296;BME280;2670;42.720;23.336;2024-03-23T11:38:19;-18091.72;;;-145.34;33.80
5296;BME280;2670;42.720;23.336;2024-03-23T11:40:47;-18091.72;;;-145.34;32.50
5296;BME280;2670;42.720;23.336;2024-03-23T11:43:15;-18091.72;;;-145.34;32.37
5296;BME280;2670;42.720;23.336;2024-03-23T11:45:43;-18091.72;;;-145.34;32.01
5296;BME280;2670;42.720;23.336;2024-03-23T11:48:11;-18091.72;;;-145.34;32.28
5296;BME280;2670;42.720;23.336;2024-03-23T11:50:39;-18091.72;;;-145.34;32.34
5296;BME280;2670;42.720;23.336;2024-03-23T11:53:15;-18091.72;;;-145.34;31.84
5296;BME280;2670;42.720;23.336;2024-03-23T11:55:49;-18091.72;;;-145.34;32.79
5296;BME280;2670;42.720;23.336;2024-03-23T11:58:17;-18091.72;;;-145.34;32.17
5296;BME280;2670;42.720;23.336;2024-03-23T12:00:49;-18091.72;;;-145.34;32.67
5296;BME280;2670;42.720;23.336;2024-03-23T12:03:17;-18091.72;;;-145.34;32.09
5296;BME280;2670;42.720;23.336;2024-03-23T12:05:48;-18091.72;;;-145.34;32.27
5296;BME280;2670;42.720;23.336;2024-03-23T12:08:18;-18091.72;;;-145.34;31.96
5296;BME280;2670;42.720;23.336;2024-03-23T12:10:46;-18091.72;;;-145.34;32.37
5296;BME280;2670;42.720;23.336;2024-03-23T12:13:19;-18091.72;;;-145.34;31.66
5296;BME280;2670;42.720;23.336;2024-03-23T12:15:46;-18091.72;;;-145.34;31.40
5296;BME280;2670;42.720;23.336;2024-03-23T12:18:13;-18091.72;;;-145.34;31.05
5296;BME280;2670;42.720;23.336;2024-03-23T12:20:39;-18091.72;;;-145.34;31.36
5296;BME280;2670;42.720;23.336;2024-03-23T12:23:10;-18091.72;;;-145.34;30.94
5296;BME280;2670;42.720;23.336;2024-03-23T12:25:37;-18091.72;;;-145.34;31.14
5296;BME280;2670;42.720;23.336;2024-03-23T12:28:04;-18091.72;;;-145.34;31.48
5296;BME280;2670;42.720;23.336;2024-03-23T12:30:33;-18091.72;;;-145.34;31.78
5296;BME280;2670;42.720;23.336;2024-03-23T12:33:00;-18091.72;;;-145.34;31.19
5296;BME280;2670;42.720;23.336;2024-03-23T12:35:26;-18091.72;;;-145.34;31.02
5296;BME280;2670;42.720;23.336;2024-03-23T12:37:53;-18091.72;;;-145.34;31.41
5296;BME280;2670;42.720;23.336;2024-03-23T12:40:18;-18091.72;;;-145.34;30.53
5296;BME280;2670;42.720;23.336;2024-03-23T12:42:45;-18091.72;;;-145.34;30.85
5296;BME280;2670;42.720;23.336;2024-03-23T12:45:11;-18091.72;;;-145.34;30.62
5296;BME280;2670;42.720;23.336;2024-03-23T12:47:39;-18091.72;;;-145.34;30.18
5296;BME280;2670;42.720;23.336;2024-03-23T12:50:05;-18091.72;;;-145.34;30.51
5296;BME280;2670;42.720;23.336;2024-03-23T12:52:32;-18091.72;;;-145.34;30.20
5296;BME280;2670;42.720;23.336;2024-03-23T12:54:57;-18091.72;;;-145.34;29.60
5296;BME280;2670;42.720;23.336;2024-03-23T12:57:25;-18091.72;;;-145.34;30.12
5296;BME280;2670;42.720;23.336;2024-03-23T12:59:51;-18091.72;;;-145.34;29.71
5296;BME280;2670;42.720;23.336;2024-03-23T13:02:19;-18091.72;;;-145.34;29.26
5296;BME280;2670;42.720;23.336;2024-03-23T13:04:48;-18091.72;;;-145.34;29.94
5296;BME280;2670;42.720;23.336;2024-03-23T13:07:16;-18091.72;;;-145.34;29.43
5296;BME280;2670;42.720;23.336;2024-03-23T13:09:42;-18091.72;;;-145.34;29.48
5296;BME280;2670;42.720;23.336;2024-03-23T13:12:08;-18091.72;;;-145.34;28.42
5296;BME280;2670;42.720;23.336;2024-03-23T13:14:34;-18091.72;;;-145.34;29.40
5296;BME280;2670;42.720;23.336;2024-03-23T13:17:01;-18091.72;;;-145.34;26.70
5296;BME280;2670;42.720;23.336;2024-03-23T13:19:27;-18091.72;;;-145.34;26.68
5296;BME280;2670;42.720;23.336;2024-03-23T13:21:57;-18091.72;;;-145.34;25.72
5296;BME280;2670;42.720;23.336;2024-03-23T13:24:23;-18091.72;;;-145.34;26.03
5296;BME280;2670;42.720;23.336;2024-03-23T13:26:50;-18091.72;;;-145.34;25.69
5296;BME280;2670;42.720;23.336;2024-03-23T13:29:17;-18091.72;;;-145.34;25.57
5296;BME280;2670;42.720;23.336;2024-03-23T13:31:44;-18091.72;;;-145.34;26.26
5296;BME280;2670;42.720;23.336;2024-03-23T13:34:09;-18091.72;;;-145.34;25.55